createdAt,value
2022-09-20T00:01:17.629Z,2.00
2022-09-20T00:03:46.381Z,2.50
2022-09-20T00:06:17.846Z,1.93
2022-09-20T00:08:45.418Z,1.73
2022-09-20T00:11:15.481Z,1.77
2022-09-20T00:13:43.848Z,1.10
2022-09-20T00:16:12.512Z,1.07
2022-09-20T00:18:39.899Z,0.83
2022-09-20T00:21:07.452Z,1.83
2022-09-20T00:23:36.012Z,2.33
2022-09-20T00:26:04.205Z,1.50
2022-09-20T00:28:32.901Z,1.43
2022-09-20T00:31:00.058Z,2.03
2022-09-20T00:33:47.671Z,0.43
2022-09-20T00:36:15.089Z,1.23
2022-09-20T00:38:42.275Z,1.43
2022-09-20T00:41:09.925Z,1.60
2022-09-20T00:43:38.387Z,0.80
2022-09-20T00:46:06.099Z,1.37
2022-09-20T00:48:34.231Z,1.47
2022-09-20T00:51:07.844Z,0.93
2022-09-20T00:53:38.960Z,2.47
2022-09-20T00:56:10.100Z,2.20
2022-09-20T00:58:38.696Z,0.73
2022-09-20T01:01:06.819Z,1.50
2022-09-20T01:03:35.570Z,0.70
2022-09-20T01:06:04.736Z,1.57
2022-09-20T01:08:32.859Z,1.77
2022-09-20T01:11:00.075Z,1.40
2022-09-20T01:13:27.182Z,1.30
2022-09-20T01:15:54.943Z,1.73
2022-09-20T01:18:22.801Z,3.70
2022-09-20T01:20:50.714Z,1.00
2022-09-20T01:23:44.639Z,1.90
2022-09-20T01:26:30.458Z,2.07
2022-09-20T01:29:02.371Z,1.60
2022-09-20T01:31:32.561Z,2.17
2022-09-20T01:34:04.734Z,1.13
2022-09-20T01:36:39.781Z,2.80
2022-09-20T01:39:06.935Z,1.47
2022-09-20T01:41:37.310Z,1.30
2022-09-20T01:44:23.264Z,1.60
2022-09-20T01:46:53.652Z,2.10
2022-09-20T01:49:39.107Z,1.00
2022-09-20T01:52:06.166Z,0.90
2022-09-20T01:54:33.233Z,2.60
2022-09-20T01:57:18.847Z,0.83
2022-09-20T01:59:52.175Z,1.23
2022-09-20T02:02:25.322Z,1.40
2022-09-20T02:04:59.880Z,1.63
2022-09-20T02:07:41.991Z,1.90
2022-09-20T02:10:28.336Z,2.70
2022-09-20T02:13:04.431Z,1.80
2022-09-20T02:15:36.506Z,2.20
2022-09-20T02:18:03.578Z,1.80
2022-09-20T02:20:49.295Z,1.40
2022-09-20T02:23:22.512Z,1.43
2022-09-20T02:25:55.975Z,1.50
2022-09-20T02:28:31.952Z,1.13
2022-09-20T02:31:14.108Z,1.27
2022-09-20T02:33:44.290Z,1.93
2022-09-20T02:36:14.582Z,2.53
2022-09-20T02:38:45.742Z,1.10
2022-09-20T02:41:12.810Z,0.77
2022-09-20T02:43:39.906Z,2.20
2022-09-20T02:46:29.108Z,0.80
2022-09-20T02:49:08.474Z,1.07
2022-09-20T02:51:41.195Z,1.40
2022-09-20T02:54:27.124Z,1.17
2022-09-20T02:56:54.263Z,2.47
2022-09-20T02:59:32.045Z,1.70
2022-09-20T03:02:28.575Z,1.87
2022-09-20T03:05:01.485Z,2.20
2022-09-20T03:07:47.081Z,2.43
2022-09-20T03:10:31.635Z,0.93
2022-09-20T03:13:27.820Z,0.80
2022-09-20T03:16:13.804Z,3.43
2022-09-20T03:18:47.965Z,1.60
2022-09-20T03:21:26.990Z,1.70
2022-09-20T03:24:08.968Z,1.60
2022-09-20T03:26:54.581Z,3.97
2022-09-20T03:29:21.643Z,3.40
2022-09-20T03:32:05.974Z,3.27
2022-09-20T03:34:36.211Z,1.57
2022-09-20T03:37:09.944Z,1.80
2022-09-20T03:39:42.860Z,2.47
2022-09-20T03:42:11.005Z,2.80
2022-09-20T03:44:43.072Z,3.87
2022-09-20T03:47:21.438Z,2.30
2022-09-20T03:50:03.552Z,2.80
2022-09-20T03:52:45.715Z,3.10
2022-09-20T03:55:15.854Z,2.17
2022-09-20T03:57:55.132Z,2.50
2022-09-20T04:00:23.998Z,3.93
2022-09-20T04:03:09.694Z,4.60
2022-09-20T04:05:39.779Z,2.80
2022-09-20T04:08:25.686Z,1.27
2022-09-20T04:11:11.702Z,1.50
2022-09-20T04:13:49.085Z,2.17
2022-09-20T04:16:25.047Z,1.87
2022-09-20T04:19:00.792Z,3.13
2022-09-20T04:21:40.387Z,3.87
2022-09-20T04:24:13.910Z,2.23
2022-09-20T04:26:44.070Z,3.03
2022-09-20T04:29:26.552Z,2.13
2022-09-20T04:32:03.790Z,2.13
2022-09-20T04:34:52.561Z,3.73
2022-09-20T04:37:26.616Z,2.63
2022-09-20T04:40:15.048Z,2.97
2022-09-20T04:42:55.422Z,5.33
2022-09-20T04:45:42.395Z,5.23
2022-09-20T04:48:15.750Z,3.57
2022-09-20T04:50:45.589Z,3.40
2022-09-20T04:53:18.962Z,3.63
2022-09-20T04:55:56.084Z,4.73
2022-09-20T04:58:42.197Z,4.53
2022-09-20T05:01:32.139Z,3.63
2022-09-20T05:04:15.030Z,3.40
2022-09-20T05:06:51.057Z,4.60
2022-09-20T05:09:36.691Z,4.63
2022-09-20T05:12:22.523Z,6.57
2022-09-20T05:15:08.285Z,3.60
2022-09-20T05:17:54.117Z,3.53
2022-09-20T05:20:40.385Z,4.00
2022-09-20T05:23:16.380Z,4.63
2022-09-20T05:25:48.555Z,6.73
2022-09-20T05:28:22.025Z,4.10
2022-09-20T05:30:58.550Z,6.00
2022-09-20T05:33:30.365Z,4.00
2022-09-20T05:36:29.197Z,6.03
2022-09-20T05:39:37.994Z,4.67
2022-09-20T05:42:24.053Z,4.30
2022-09-20T05:45:00.089Z,6.47
2022-09-20T05:47:38.713Z,3.40
2022-09-20T05:50:12.419Z,6.93
2022-09-20T05:52:54.710Z,5.80
2022-09-20T05:55:24.414Z,5.13
2022-09-20T05:58:01.292Z,6.23
2022-09-20T06:00:33.217Z,5.87
2022-09-20T06:03:12.821Z,5.87
2022-09-20T06:05:46.016Z,5.83
2022-09-20T06:08:21.788Z,6.53
2022-09-20T06:11:11.841Z,5.67
2022-09-20T06:13:38.903Z,6.40
2022-09-20T06:16:07.129Z,7.77
2022-09-20T06:18:37.212Z,7.53
2022-09-20T06:21:10.210Z,5.50
2022-09-20T06:23:37.523Z,5.93
2022-09-20T06:26:08.328Z,6.13
2022-09-20T06:28:41.277Z,6.97
2022-09-20T06:31:10.150Z,5.77
2022-09-20T06:33:45.011Z,8.40
2022-09-20T06:36:33.744Z,5.13
2022-09-20T06:39:19.553Z,6.00
2022-09-20T06:41:46.650Z,6.33
2022-09-20T06:44:13.757Z,7.63
2022-09-20T06:46:41.632Z,5.10
2022-09-20T06:49:09.521Z,6.67
2022-09-20T06:51:38.091Z,5.33
2022-09-20T06:54:06.292Z,5.10
2022-09-20T06:56:36.356Z,3.97
2022-09-20T06:59:11.464Z,4.93
2022-09-20T07:01:38.802Z,5.30
2022-09-20T07:04:06.408Z,4.77
2022-09-20T07:06:34.298Z,4.27
2022-09-20T07:09:01.464Z,4.90
2022-09-20T07:11:28.582Z,4.43
2022-09-20T07:13:58.109Z,5.40
2022-09-20T07:16:26.370Z,5.17
2022-09-20T07:18:53.641Z,4.60
2022-09-20T07:21:21.572Z,4.90
2022-09-20T07:23:49.091Z,9.27
2022-09-20T07:26:19.312Z,6.00
2022-09-20T07:28:46.498Z,6.63
2022-09-20T07:31:14.460Z,5.87
2022-09-20T07:33:41.658Z,5.77
2022-09-20T07:36:09.889Z,7.93
2022-09-20T07:38:36.985Z,8.40
2022-09-20T07:41:04.128Z,4.83
2022-09-20T07:43:31.673Z,8.33
2022-09-20T07:45:59.961Z,9.77
2022-09-20T07:48:28.280Z,8.67
2022-09-20T07:51:08.587Z,6.33
2022-09-20T07:53:36.543Z,8.17
2022-09-20T07:56:04.934Z,6.43
2022-09-20T07:58:33.968Z,6.67
2022-09-20T08:01:02.039Z,8.83
2022-09-20T08:03:31.161Z,13.20
2022-09-20T08:06:01.893Z,10.40
2022-09-20T08:08:29.481Z,8.23
2022-09-20T08:11:02.752Z,8.20
2022-09-20T08:16:17.523Z,7.87
2022-09-20T08:18:48.528Z,6.50
2022-09-20T08:21:16.236Z,9.30
2022-09-20T08:23:44.538Z,9.13
2022-09-20T08:26:12.995Z,6.57
2022-09-20T08:28:40.724Z,7.90
2022-09-20T08:31:13.157Z,8.87
2022-09-20T08:33:40.555Z,8.73
2022-09-20T08:36:08.392Z,9.97
2022-09-20T08:41:23.143Z,10.00
2022-09-20T08:44:08.040Z,8.57
2022-09-20T08:46:38.506Z,10.43
2022-09-20T08:49:10.985Z,7.80
2022-09-20T08:51:42.874Z,5.63
2022-09-20T08:54:16.013Z,5.07
2022-09-20T08:56:45.322Z,7.73
2022-09-20T08:59:15.775Z,4.90
2022-09-20T09:01:43.212Z,4.93
2022-09-20T09:04:14.852Z,5.70
2022-09-20T09:06:42.314Z,6.00
2022-09-20T09:09:15.252Z,4.03
2022-09-20T09:11:45.836Z,3.60
2022-09-20T09:14:36.679Z,4.17
2022-09-20T09:17:03.910Z,9.00
2022-09-20T09:19:34.065Z,4.27
2022-09-20T09:22:02.769Z,3.93
2022-09-20T09:24:31.465Z,4.47
2022-09-20T09:27:07.937Z,5.97
2022-09-20T09:29:35.173Z,7.33
2022-09-20T09:32:19.869Z,4.47
2022-09-20T09:34:47.041Z,4.40
2022-09-20T09:37:28.619Z,5.50
2022-09-20T09:40:09.205Z,4.97
2022-09-20T09:42:36.609Z,5.13
2022-09-20T09:45:14.009Z,5.50
2022-09-20T09:47:41.144Z,6.00
2022-09-20T09:50:21.437Z,6.23
2022-09-20T09:53:10.796Z,7.90
2022-09-20T09:55:43.853Z,4.73
2022-09-20T09:58:24.288Z,4.20
2022-09-20T10:00:52.051Z,3.60
2022-09-20T10:03:26.361Z,5.73
2022-09-20T10:06:12.211Z,4.10
2022-09-20T10:08:42.296Z,3.83
2022-09-20T10:11:10.158Z,3.83
2022-09-20T10:13:40.915Z,4.63
2022-09-20T10:16:21.104Z,4.17
2022-09-20T10:19:07.268Z,5.47
2022-09-20T10:21:41.888Z,3.83
2022-09-20T10:24:18.022Z,3.30
2022-09-20T10:26:54.332Z,2.87
2022-09-20T10:29:35.825Z,4.20
2022-09-20T10:32:03.746Z,3.37
2022-09-20T10:34:49.784Z,5.87
2022-09-20T10:37:24.076Z,3.47
2022-09-20T10:39:58.621Z,3.53
2022-09-20T10:43:03.260Z,1.67
2022-09-20T10:46:14.059Z,2.83
2022-09-20T10:48:33.620Z,2.17
2022-09-20T10:51:04.831Z,5.03
2022-09-20T10:53:44.790Z,1.90
2022-09-20T10:56:28.355Z,3.63
2022-09-20T10:59:17.162Z,3.37
2022-09-20T11:02:02.928Z,3.13
2022-09-20T11:04:30.061Z,4.73
2022-09-20T11:07:03.181Z,2.87
2022-09-20T11:09:38.334Z,4.13
2022-09-20T11:12:11.230Z,3.10
2022-09-20T11:14:49.982Z,1.13
2022-09-20T11:17:25.228Z,2.00
2022-09-20T11:19:52.319Z,3.37
2022-09-20T11:22:22.235Z,2.77
2022-09-20T11:24:56.051Z,3.33
2022-09-20T11:27:26.948Z,2.20
2022-09-20T11:30:02.010Z,2.87
2022-09-20T11:32:34.891Z,1.83
2022-09-20T11:35:04.736Z,2.57
2022-09-20T11:37:34.614Z,1.43
2022-09-20T11:40:02.617Z,1.30
2022-09-20T11:42:32.051Z,1.70
2022-09-20T11:44:59.271Z,1.83
2022-09-20T11:47:53.200Z,1.33
2022-09-20T11:50:38.321Z,0.80
2022-09-20T11:53:14.390Z,2.47
2022-09-20T11:55:50.839Z,1.93
2022-09-20T11:58:22.426Z,2.87
2022-09-20T12:00:51.736Z,3.30
2022-09-20T12:03:25.075Z,4.53
2022-09-20T12:06:00.464Z,2.30
2022-09-20T12:08:32.429Z,3.50
2022-09-20T12:11:04.531Z,2.00
2022-09-20T12:13:32.413Z,4.83
2022-09-20T12:15:59.476Z,3.30
2022-09-20T12:18:33.048Z,4.30
2022-09-20T12:21:02.206Z,1.53
2022-09-20T12:23:44.379Z,1.03
2022-09-20T12:26:21.043Z,2.13
2022-09-20T12:28:52.774Z,1.10
2022-09-20T12:31:25.879Z,1.63
2022-09-20T12:33:59.215Z,1.83
2022-09-20T12:36:27.483Z,3.77
2022-09-20T12:38:59.648Z,2.63
2022-09-20T12:41:28.878Z,3.43
2022-09-20T12:44:01.581Z,2.60
2022-09-20T12:46:31.683Z,2.03
2022-09-20T12:49:49.244Z,2.37
2022-09-20T12:52:50.752Z,3.97
2022-09-20T12:55:27.095Z,3.53
2022-09-20T12:57:58.447Z,1.60
2022-09-20T13:00:36.802Z,2.77
2022-09-20T13:03:21.626Z,2.47
2022-09-20T13:05:52.658Z,3.27
2022-09-20T13:08:21.606Z,2.20
2022-09-20T13:10:51.304Z,3.53
2022-09-20T13:13:36.983Z,2.33
2022-09-20T13:16:06.391Z,1.70
2022-09-20T13:18:35.329Z,1.97
2022-09-20T13:21:06.771Z,1.87
2022-09-20T13:23:40.476Z,2.43
2022-09-20T13:26:10.154Z,1.80
2022-09-20T13:28:45.350Z,1.73
2022-09-20T13:31:21.328Z,2.83
2022-09-20T13:33:49.128Z,3.70
2022-09-20T13:36:20.182Z,4.13
2022-09-20T13:38:49.437Z,2.03
2022-09-20T13:41:16.589Z,3.77
2022-09-20T13:43:45.267Z,1.23
2022-09-20T13:46:12.382Z,2.53
2022-09-20T13:48:40.807Z,1.53
2022-09-20T13:51:19.952Z,1.47
2022-09-20T13:53:47.581Z,2.00
2022-09-20T13:56:28.595Z,0.90
2022-09-20T13:58:58.832Z,1.57
2022-09-20T14:01:30.317Z,1.07
2022-09-20T14:04:08.238Z,1.10
2022-09-20T14:06:36.051Z,0.90
2022-09-20T14:09:10.504Z,3.33
2022-09-20T14:11:38.222Z,1.53
2022-09-20T14:14:06.145Z,1.23
2022-09-20T14:16:39.594Z,0.60
2022-09-20T14:19:10.492Z,1.40
2022-09-20T14:21:38.243Z,1.23
2022-09-20T14:24:24.889Z,1.40
2022-09-20T14:27:27.510Z,1.33
2022-09-20T14:29:56.235Z,1.50
2022-09-20T14:32:23.277Z,1.40
2022-09-20T14:34:56.572Z,1.70
2022-09-20T14:37:44.103Z,1.20
2022-09-20T14:40:22.329Z,1.30
2022-09-20T14:42:52.288Z,1.40
2022-09-20T14:45:23.393Z,5.50
2022-09-20T14:47:55.920Z,1.90
2022-09-20T14:50:28.126Z,1.47
2022-09-20T14:53:07.241Z,1.27
2022-09-20T14:55:37.553Z,5.70
2022-09-20T14:58:10.656Z,6.53
2022-09-20T15:00:51.225Z,7.20
2022-09-20T15:03:21.981Z,2.60
2022-09-20T15:05:50.596Z,3.67
2022-09-20T15:08:19.736Z,1.97
2022-09-20T15:10:47.728Z,1.20
2022-09-20T15:13:15.152Z,1.40
2022-09-20T15:15:44.287Z,1.13
2022-09-20T15:18:20.016Z,4.47
2022-09-20T15:20:47.276Z,2.90
2022-09-20T15:23:14.375Z,1.73
2022-09-20T15:25:41.445Z,6.60
2022-09-20T15:28:11.759Z,1.53
2022-09-20T15:30:38.855Z,4.47
2022-09-20T15:33:05.940Z,1.10
2022-09-20T15:35:33.137Z,1.67
2022-09-20T15:38:00.224Z,1.50
2022-09-20T15:40:28.557Z,1.00
2022-09-20T15:42:59.966Z,0.63
2022-09-20T15:45:28.135Z,0.80
2022-09-20T15:47:55.447Z,2.27
2022-09-20T15:50:23.452Z,4.73
2022-09-20T15:52:51.785Z,3.43
2022-09-20T15:55:19.460Z,1.73
2022-09-20T15:57:48.838Z,1.77
2022-09-20T16:00:19.796Z,0.70
2022-09-20T16:02:50.137Z,2.87
2022-09-20T16:05:17.284Z,1.23
2022-09-20T16:07:44.388Z,1.40
2022-09-20T16:10:11.485Z,0.80
2022-09-20T16:12:38.550Z,1.10
2022-09-20T16:15:05.892Z,0.53
2022-09-20T16:17:51.666Z,1.07
2022-09-20T16:20:18.739Z,2.63
2022-09-20T16:22:47.021Z,3.47
2022-09-20T16:25:14.114Z,1.87
2022-09-20T16:27:41.184Z,1.37
2022-09-20T16:30:08.582Z,0.97
2022-09-20T16:32:35.685Z,0.83
2022-09-20T16:35:07.092Z,6.10
2022-09-20T16:37:35.350Z,1.17
2022-09-20T16:40:02.576Z,2.60
2022-09-20T16:42:29.697Z,1.57
2022-09-20T16:44:57.176Z,5.80
2022-09-20T16:47:26.301Z,1.50
2022-09-20T16:49:54.203Z,2.33
2022-09-20T16:52:21.410Z,1.90
2022-09-20T16:54:48.524Z,1.50
2022-09-20T16:57:16.079Z,4.00
2022-09-20T16:59:43.240Z,3.27
2022-09-20T17:02:13.467Z,2.43
2022-09-20T17:04:43.542Z,3.03
2022-09-20T17:07:10.758Z,1.83
2022-09-20T17:09:37.828Z,1.60
2022-09-20T17:12:09.151Z,1.20
2022-09-20T17:14:37.046Z,1.27
2022-09-20T17:17:04.143Z,1.13
2022-09-20T17:19:31.261Z,0.77
2022-09-20T17:21:58.386Z,0.50
2022-09-20T17:24:26.290Z,1.00
2022-09-20T17:26:53.850Z,0.80
2022-09-20T17:29:21.210Z,0.60
2022-09-20T17:31:54.492Z,3.00
2022-09-20T17:34:22.590Z,0.73
2022-09-20T17:36:50.741Z,3.20
2022-09-20T17:39:18.442Z,0.87
2022-09-20T17:41:46.582Z,0.90
2022-09-20T17:44:14.068Z,1.30
2022-09-20T17:46:42.307Z,0.70
2022-09-20T17:49:13.395Z,1.23
2022-09-20T17:51:42.018Z,1.40
2022-09-20T17:54:12.740Z,0.90
2022-09-20T17:56:42.642Z,1.00
2022-09-20T17:59:10.442Z,1.60
2022-09-20T18:01:37.736Z,1.40
2022-09-20T18:04:05.801Z,2.43
2022-09-20T18:06:35.826Z,2.20
2022-09-20T18:09:04.590Z,2.07
2022-09-20T18:11:38.865Z,2.17
2022-09-20T18:14:07.057Z,2.00
2022-09-20T18:16:35.104Z,2.30
2022-09-20T18:19:02.327Z,2.20
2022-09-20T18:21:30.170Z,4.17
2022-09-20T18:23:57.497Z,4.57
2022-09-20T18:26:25.852Z,4.37
2022-09-20T18:29:12.432Z,5.37
2022-09-20T18:31:49.916Z,4.37
2022-09-20T18:34:21.371Z,3.90
2022-09-20T18:36:55.226Z,5.40
2022-09-20T18:39:23.049Z,4.33
2022-09-20T18:41:50.676Z,2.90
2022-09-20T18:44:21.398Z,2.73
2022-09-20T18:46:48.545Z,2.80
2022-09-20T18:49:16.965Z,2.87
2022-09-20T18:51:44.739Z,2.33
2022-09-20T18:54:12.697Z,3.10
2022-09-20T18:56:40.696Z,4.00
2022-09-20T18:59:10.606Z,5.13
2022-09-20T19:01:37.742Z,4.23
2022-09-20T19:04:07.763Z,4.10
2022-09-20T19:06:41.027Z,5.53
2022-09-20T19:09:19.723Z,3.87
2022-09-20T19:11:50.897Z,4.63
2022-09-20T19:14:29.977Z,5.10
2022-09-20T19:17:01.342Z,2.97
2022-09-20T19:19:28.488Z,5.80
2022-09-20T19:22:01.723Z,4.23
2022-09-20T19:24:34.593Z,2.60
2022-09-20T19:27:01.866Z,2.47
2022-09-20T19:29:29.302Z,3.13
2022-09-20T19:32:00.861Z,3.97
2022-09-20T19:34:29.549Z,2.53
2022-09-20T19:37:19.700Z,2.90
2022-09-20T19:39:47.839Z,2.73
2022-09-20T19:42:31.133Z,2.87
2022-09-20T19:45:01.095Z,2.40
2022-09-20T19:47:39.147Z,2.77
2022-09-20T19:50:15.801Z,3.47
2022-09-20T19:52:43.801Z,3.00
2022-09-20T19:55:12.327Z,2.37
2022-09-20T19:57:44.025Z,3.50
2022-09-20T20:00:15.378Z,2.37
2022-09-20T20:02:44.626Z,3.73
2022-09-20T20:05:15.836Z,2.50
2022-09-20T20:08:01.789Z,3.40
2022-09-20T20:10:41.197Z,3.23
2022-09-20T20:13:35.887Z,2.60
2022-09-20T20:16:05.413Z,3.63
2022-09-20T20:18:51.188Z,8.00
2022-09-20T20:21:26.687Z,8.70
2022-09-20T20:23:53.769Z,4.27
2022-09-20T20:26:24.923Z,4.13
2022-09-20T20:28:52.799Z,3.70
2022-09-20T20:31:20.882Z,5.87
2022-09-20T20:33:48.188Z,5.03
2022-09-20T20:36:16.765Z,4.37
2022-09-20T20:38:49.434Z,2.87
2022-09-20T20:41:18.479Z,2.87
2022-09-20T20:43:47.155Z,2.17
2022-09-20T20:46:15.669Z,2.83
2022-09-20T20:48:42.947Z,3.00
2022-09-20T20:51:11.475Z,6.93
2022-09-20T20:53:44.902Z,5.03
2022-09-20T20:56:13.178Z,5.03
2022-09-20T20:58:41.729Z,4.07
2022-09-20T21:01:10.949Z,3.67
2022-09-20T21:03:38.576Z,4.67
2022-09-20T21:06:05.787Z,3.17
2022-09-20T21:08:34.258Z,3.17
2022-09-20T21:11:08.959Z,2.90
2022-09-20T21:13:36.670Z,3.60
2022-09-20T21:16:04.822Z,3.77
2022-09-20T21:18:32.328Z,3.33
2022-09-20T21:20:59.748Z,4.00
2022-09-20T21:23:27.016Z,3.27
2022-09-20T21:26:01.120Z,4.10
2022-09-20T21:28:29.404Z,2.90
2022-09-20T21:30:59.504Z,2.53
2022-09-20T21:33:37.105Z,3.50
2022-09-20T21:36:05.300Z,3.00
2022-09-20T21:38:33.768Z,1.80
2022-09-20T21:41:19.888Z,2.37
2022-09-20T21:43:48.843Z,2.93
2022-09-20T21:46:20.254Z,2.50
2022-09-20T21:48:48.283Z,2.47
2022-09-20T21:51:16.714Z,2.20
2022-09-20T21:53:43.832Z,2.47
2022-09-20T21:56:12.545Z,3.03
2022-09-20T21:58:42.726Z,3.27
2022-09-20T22:01:11.470Z,2.93
2022-09-20T22:03:38.682Z,3.53
2022-09-20T22:06:11.628Z,2.00
2022-09-20T22:08:39.679Z,2.90
2022-09-20T22:11:11.094Z,3.07
2022-09-20T22:13:41.584Z,3.30
2022-09-20T22:16:10.093Z,3.30
2022-09-20T22:18:38.533Z,4.67
2022-09-20T22:21:10.067Z,3.80
2022-09-20T22:23:37.385Z,2.90
2022-09-20T22:26:09.091Z,2.33
2022-09-20T22:28:36.215Z,5.37
2022-09-20T22:31:07.790Z,3.63
2022-09-20T22:33:35.885Z,4.80
2022-09-20T22:36:03.260Z,3.83
2022-09-20T22:38:30.674Z,2.73
2022-09-20T22:40:58.401Z,3.40
2022-09-20T22:43:25.525Z,3.37
2022-09-20T22:45:52.686Z,3.07
2022-09-20T22:48:20.072Z,4.83
2022-09-20T22:50:47.267Z,3.93
2022-09-20T22:53:14.402Z,3.73
2022-09-20T22:55:41.519Z,2.87
2022-09-20T22:58:08.633Z,3.83
2022-09-20T23:00:35.720Z,2.53
2022-09-20T23:03:02.801Z,3.30
2022-09-20T23:05:29.889Z,3.50
2022-09-20T23:07:57.040Z,3.50
2022-09-20T23:10:24.227Z,2.80
2022-09-20T23:12:51.632Z,3.40
2022-09-20T23:15:18.797Z,2.67
2022-09-20T23:17:45.959Z,3.53
2022-09-20T23:20:13.108Z,5.03
2022-09-20T23:22:40.235Z,3.00
2022-09-20T23:25:07.608Z,5.77
2022-09-20T23:27:34.679Z,2.87
2022-09-20T23:30:01.827Z,3.40
2022-09-20T23:32:28.912Z,3.63
2022-09-20T23:34:56.794Z,2.67
2022-09-20T23:37:23.970Z,3.60
2022-09-20T23:39:51.079Z,3.90
2022-09-20T23:42:18.167Z,2.80
2022-09-20T23:44:45.304Z,3.10
2022-09-20T23:47:12.428Z,2.70
2022-09-20T23:49:40.556Z,2.60
2022-09-20T23:52:07.663Z,4.50
2022-09-20T23:54:34.775Z,3.60
2022-09-20T23:57:01.907Z,2.70
2022-09-20T23:59:29.039Z,2.93
